Terminal Aerodrome Forecast
Issued by NWS

Home | Current Version | Previous Version | Text Only | Print | Product List | Glossary On
Versions: 1 2 3 4 5 6 7 8 9 10 11 12 13 14 15 16 17 18 19 20 21 22 23 24 25 26
000
FTUS42 KJAX 231156
TAFVQQ
TAF
KVQQ 231156Z 2312/2412 01009KT 3SM RA BR BKN005 OVC015
      TEMPO 2313/2317 1SM +RA BR BKN006 OVC010
     FM231700 05010G15KT 5SM -RA BR SCT009 BKN015 OVC030
     FM240100 36006KT 5SM -RA BR BKN005 OVC009=

USA.gov is the U.S. government's official web portal to all federal, state and local government web resources and services.